Time;durP1;ratioP1;P1;durP2;ratioP2;P2;SDS_P1;SDS_P2;PMS_P1;PMS_P2;Temp;Humidity;BMP_temperature;BMP_pressure;BME280_temperature;BME280_humidity;BME280_pressure;Samples;Min_cycle;Max_cycle;Signal;HPM_P1;HPM_P2
2021/11/11 00:01:47;;;;;;;37.85;23.05;;;9.50;99.90;;;;;;5014964;28;20037;-84
2021/11/11 00:04:16;;;;;;;39.97;23.52;;;9.50;99.90;;;;;;5018278;28;20444;-82
2021/11/11 00:06:42;;;;;;;41.85;23.00;;;9.50;99.90;;;;;;4999551;28;20103;-83
2021/11/11 00:09:07;;;;;;;39.83;22.23;;;9.50;99.90;;;;;;4998093;28;20079;-82
2021/11/11 00:11:33;;;;;;;37.67;22.70;;;9.50;99.90;;;;;;5015143;28;20136;-83
2021/11/11 00:13:58;;;;;;;40.45;22.75;;;9.50;99.90;;;;;;5016371;28;20037;-83
2021/11/11 00:16:24;;;;;;;44.88;24.67;;;9.50;99.90;;;;;;5017655;28;20045;-82
2021/11/11 00:18:50;;;;;;;39.90;22.13;;;9.50;99.90;;;;;;5014727;28;20079;-83
2021/11/11 00:21:15;;;;;;;36.17;22.92;;;9.50;99.90;;;;;;5011799;28;20057;-82
2021/11/11 00:23:42;;;;;;;39.83;23.10;;;9.50;99.90;;;;;;5015141;28;20072;-82
2021/11/11 00:26:08;;;;;;;38.53;22.52;;;9.50;99.90;;;;;;5012481;28;20048;-84
2021/11/11 00:28:34;;;;;;;42.90;24.55;;;9.50;99.90;;;;;;5013593;28;20037;-83
2021/11/11 00:31:00;;;;;;;42.53;23.05;;;9.50;99.90;;;;;;5014355;28;20041;-84
2021/11/11 00:33:25;;;;;;;36.97;22.73;;;9.50;99.90;;;;;;5017237;28;20565;-81
2021/11/11 00:35:51;;;;;;;37.13;22.38;;;9.50;99.90;;;;;;5015543;28;20033;-82
2021/11/11 00:38:16;;;;;;;40.67;21.90;;;9.50;99.90;;;;;;5015590;28;20505;-82
2021/11/11 00:40:42;;;;;;;34.88;20.98;;;9.40;99.90;;;;;;5014631;28;20092;-84
2021/11/11 00:43:08;;;;;;;40.50;22.60;;;9.50;99.90;;;;;;5014278;28;20056;-82
2021/11/11 00:45:34;;;;;;;41.13;23.05;;;9.40;99.90;;;;;;4989030;28;20070;-82
2021/11/11 00:48:00;;;;;;;37.30;23.52;;;9.40;99.90;;;;;;4996660;28;20052;-82
2021/11/11 00:50:29;;;;;;;35.45;22.30;;;9.40;99.90;;;;;;5008350;28;20037;-82
2021/11/11 00:52:55;;;;;;;36.75;22.15;;;9.50;99.90;;;;;;5014158;28;20403;-84
2021/11/11 00:55:21;;;;;;;38.53;22.90;;;9.50;99.90;;;;;;5014292;28;20064;-84
2021/11/11 00:57:47;;;;;;;39.17;23.05;;;9.50;99.90;;;;;;5015483;28;20049;-83
2021/11/11 01:00:14;;;;;;;36.42;22.65;;;9.50;99.90;;;;;;5016177;28;20049;-84
2021/11/11 01:02:40;;;;;;;42.67;23.15;;;9.50;99.90;;;;;;5016501;28;20091;-82
2021/11/11 01:05:07;;;;;;;39.75;22.17;;;9.50;99.90;;;;;;5016556;28;20081;-82
2021/11/11 01:07:38;;;;;;;38.42;22.70;;;9.50;99.90;;;;;;5015118;28;20148;-84
2021/11/11 01:10:05;;;;;;;40.45;22.88;;;9.50;99.90;;;;;;5014954;28;20110;-82
2021/11/11 01:12:31;;;;;;;38.58;22.67;;;9.50;99.90;;;;;;5012155;28;20041;-82
2021/11/11 01:14:57;;;;;;;41.35;22.73;;;9.50;99.90;;;;;;5014889;28;20504;-82
2021/11/11 01:17:23;;;;;;;40.65;23.63;;;9.50;99.90;;;;;;5014477;28;20175;-84
2021/11/11 01:19:49;;;;;;;39.38;23.75;;;9.50;99.90;;;;;;5016182;28;20037;-82
2021/11/11 01:22:15;;;;;;;39.17;23.98;;;9.50;99.90;;;;;;5016969;28;20033;-82
2021/11/11 01:24:41;;;;;;;42.88;24.00;;;9.70;99.90;;;;;;5016067;28;20037;-82
2021/11/11 01:27:06;;;;;;;41.78;23.95;;;9.50;99.90;;;;;;4996083;28;20499;-82
2021/11/11 01:29:32;;;;;;;41.33;23.40;;;9.40;99.90;;;;;;4991314;28;20038;-82
2021/11/11 01:31:58;;;;;;;40.20;23.80;;;9.40;99.90;;;;;;5000644;28;20041;-82
2021/11/11 01:34:27;;;;;;;43.05;23.13;;;9.40;99.90;;;;;;5017784;28;20063;-84
2021/11/11 01:36:53;;;;;;;42.25;23.95;;;9.40;99.90;;;;;;5016243;28;20087;-82
2021/11/11 01:39:19;;;;;;;35.50;22.42;;;9.40;99.90;;;;;;4995866;28;20049;-82
2021/11/11 01:41:46;;;;;;;43.17;22.27;;;9.40;99.90;;;;;;5016325;28;20033;-82
2021/11/11 01:44:14;;;;;;;40.50;24.02;;;9.40;99.90;;;;;;5018446;28;20041;-82
2021/11/11 01:46:39;;;;;;;46.22;23.65;;;9.40;99.90;;;;;;5014534;28;20045;-82
2021/11/11 01:49:05;;;;;;;40.47;23.60;;;9.40;99.90;;;;;;5014844;28;20037;-82
2021/11/11 01:51:31;;;;;;;36.35;22.83;;;9.40;99.90;;;;;;5015871;28;20030;-83
2021/11/11 01:53:57;;;;;;;38.85;22.88;;;9.40;99.90;;;;;;4992519;28;20091;-82
2021/11/11 01:56:23;;;;;;;42.10;25.20;;;9.40;99.90;;;;;;5014678;28;20040;-82
2021/11/11 01:58:50;;;;;;;45.33;25.02;;;9.40;99.90;;;;;;5005118;28;20442;-82
2021/11/11 02:01:16;;;;;;;41.25;24.02;;;9.40;99.90;;;;;;4989628;28;20503;-82
2021/11/11 02:03:42;;;;;;;43.20;23.83;;;9.40;99.90;;;;;;5014687;28;20030;-82
2021/11/11 02:06:08;;;;;;;41.60;22.90;;;9.40;99.90;;;;;;5017837;28;20171;-82
2021/11/11 02:08:34;;;;;;;44.08;25.08;;;9.40;99.90;;;;;;5014532;28;20403;-82
2021/11/11 02:11:00;;;;;;;44.65;25.25;;;9.40;99.90;;;;;;4989976;28;20037;-82
2021/11/11 02:13:25;;;;;;;45.75;24.65;;;9.40;99.90;;;;;;5011753;28;20496;-82
2021/11/11 02:15:51;;;;;;;48.55;24.98;;;9.40;99.90;;;;;;5019937;28;20033;-84
2021/11/11 02:18:18;;;;;;;40.17;24.40;;;9.30;99.90;;;;;;5011981;28;20041;-84
2021/11/11 02:20:44;;;;;;;43.80;25.00;;;9.40;99.90;;;;;;5017992;28;20484;-82
2021/11/11 02:23:12;;;;;;;45.10;24.17;;;9.30;99.90;;;;;;5014453;28;20044;-82
2021/11/11 02:25:38;;;;;;;42.28;25.00;;;9.30;99.90;;;;;;5013274;28;20053;-83
2021/11/11 02:28:07;;;;;;;42.28;24.17;;;9.30;99.90;;;;;;5008260;28;20056;-82
2021/11/11 02:30:35;;;;;;;44.25;25.40;;;9.30;99.90;;;;;;4993609;28;20120;-82
2021/11/11 02:33:07;;;;;;;43.17;24.90;;;9.40;99.90;;;;;;5015374;28;20037;-82
2021/11/11 02:35:32;;;;;;;46.42;25.17;;;9.30;99.90;;;;;;5000593;28;20056;-82
2021/11/11 02:38:00;;;;;;;49.70;26.17;;;9.30;99.90;;;;;;5007725;28;20484;-82
2021/11/11 02:40:28;;;;;;;45.00;25.60;;;9.40;99.90;;;;;;5010963;28;20045;-82
2021/11/11 02:42:54;;;;;;;47.20;25.90;;;9.40;99.90;;;;;;5007425;28;20400;-84
2021/11/11 02:45:22;;;;;;;45.38;25.33;;;9.30;99.90;;;;;;4995890;28;20503;-84
2021/11/11 02:47:50;;;;;;;43.65;24.25;;;9.30;99.90;;;;;;5015025;28;20045;-82
2021/11/11 02:50:16;;;;;;;47.30;24.52;;;9.40;99.90;;;;;;5026153;28;20077;-84
2021/11/11 02:52:43;;;;;;;43.10;24.17;;;9.30;99.90;;;;;;5012670;28;20045;-84
2021/11/11 02:55:09;;;;;;;39.25;23.02;;;9.30;99.90;;;;;;5026918;28;20049;-82
2021/11/11 02:57:38;;;;;;;43.53;24.00;;;9.30;99.90;;;;;;5024994;28;20055;-82
2021/11/11 03:00:28;;;;;;;42.63;24.75;;;9.30;99.90;;;;;;5028671;28;20519;-83
2021/11/11 03:02:55;;;;;;;43.67;23.88;;;9.30;99.90;;;;;;5011652;28;20034;-82
2021/11/11 03:05:27;;;;;;;47.55;24.67;;;9.30;99.90;;;;;;5024002;28;20038;-82
2021/11/11 03:07:52;;;;;;;41.45;23.48;;;9.20;99.90;;;;;;5028081;28;20065;-82
2021/11/11 03:10:22;;;;;;;47.92;23.65;;;9.20;99.90;;;;;;5008667;28;20057;-83
2021/11/11 03:12:50;;;;;;;39.20;23.40;;;9.20;99.90;;;;;;5018926;28;20061;-82
2021/11/11 03:15:17;;;;;;;47.60;23.63;;;9.30;99.90;;;;;;5028964;28;20037;-83
2021/11/11 03:17:44;;;;;;;44.58;23.75;;;9.20;99.90;;;;;;5027042;28;20049;-84
2021/11/11 03:20:11;;;;;;;41.25;22.80;;;9.20;99.90;;;;;;5026765;28;20087;-82
2021/11/11 03:22:37;;;;;;;48.58;23.63;;;9.20;99.90;;;;;;5012712;28;20037;-83
2021/11/11 03:25:03;;;;;;;45.88;22.50;;;9.30;99.90;;;;;;5029914;28;20097;-84
2021/11/11 03:27:30;;;;;;;40.85;22.92;;;9.30;99.90;;;;;;5011038;28;20033;-85
2021/11/11 03:29:56;;;;;;;41.60;23.38;;;9.20;99.90;;;;;;5025680;28;20049;-82
2021/11/11 03:32:22;;;;;;;41.75;23.83;;;9.20;99.90;;;;;;5030598;28;20049;-84
2021/11/11 03:34:49;;;;;;;44.40;23.35;;;9.20;99.90;;;;;;5028972;28;20064;-82
2021/11/11 03:37:15;;;;;;;42.60;22.63;;;9.20;99.90;;;;;;5028995;28;20097;-83
2021/11/11 03:39:41;;;;;;;40.67;22.13;;;9.20;99.90;;;;;;5023944;28;20041;-82
2021/11/11 03:42:09;;;;;;;43.58;22.88;;;9.20;99.90;;;;;;5028608;28;20059;-84
2021/11/11 03:44:35;;;;;;;40.33;22.52;;;9.30;99.90;;;;;;5033355;28;20056;-84
2021/11/11 03:47:02;;;;;;;44.50;23.33;;;9.20;99.90;;;;;;5033449;28;20102;-82
2021/11/11 03:49:29;;;;;;;41.22;22.70;;;9.30;99.90;;;;;;5032791;28;20051;-85
2021/11/11 03:51:54;;;;;;;41.05;22.58;;;9.30;99.90;;;;;;5027248;28;20089;-84
2021/11/11 03:54:24;;;;;;;40.33;22.58;;;9.30;99.90;;;;;;5032630;28;20044;-84
2021/11/11 03:56:50;;;;;;;38.28;22.00;;;9.30;99.90;;;;;;5031998;28;20045;-84
2021/11/11 03:59:17;;;;;;;41.08;23.27;;;9.30;99.90;;;;;;5036026;28;20037;-82
2021/11/11 04:01:44;;;;;;;39.40;22.13;;;9.30;99.90;;;;;;5017316;28;20047;-84
2021/11/11 04:04:10;;;;;;;37.67;22.42;;;9.40;99.90;;;;;;5033036;28;20072;-85
2021/11/11 04:06:36;;;;;;;48.10;22.88;;;9.30;99.90;;;;;;5027502;28;20093;-85
2021/11/11 04:09:03;;;;;;;41.50;22.77;;;9.20;99.90;;;;;;5025689;28;20048;-83
2021/11/11 04:11:30;;;;;;;43.85;24.23;;;9.30;99.90;;;;;;5008478;28;20101;-82
2021/11/11 04:13:57;;;;;;;44.30;24.08;;;9.30;99.90;;;;;;5022962;28;20047;-83
2021/11/11 04:16:23;;;;;;;51.55;24.95;;;9.40;99.90;;;;;;5016494;28;20041;-83
2021/11/11 04:18:49;;;;;;;42.90;24.02;;;9.30;99.90;;;;;;5021990;28;20109;-83
2021/11/11 04:21:16;;;;;;;46.95;23.55;;;9.30;99.90;;;;;;5024861;28;20038;-84
2021/11/11 04:23:42;;;;;;;46.38;24.58;;;9.30;99.90;;;;;;5026973;28;20488;-81
2021/11/11 04:28:54;;;;;;;46.30;24.85;;;9.30;99.90;;;;;;5031503;28;20041;-81
2021/11/11 04:31:25;;;;;;;46.13;25.05;;;9.30;99.90;;;;;;5021160;28;20088;-81
2021/11/11 04:33:57;;;;;;;44.67;24.83;;;9.30;99.90;;;;;;5031467;28;20053;-83
2021/11/11 04:37:07;;;;;;;45.47;25.13;;;9.20;99.90;;;;;;5031238;28;20040;-85
2021/11/11 04:45:12;;;;;;;47.25;24.85;;;9.20;99.90;;;;;;4990898;28;20099;-50
2021/11/11 04:53:06;;;;;;;47.92;26.65;;;9.10;99.90;;;;;;4996718;28;20136;-50
2021/11/11 05:01:17;;;;;;;49.42;27.58;;;9.10;99.90;;;;;;4992282;28;20060;-51
2021/11/11 05:03:46;;;;;;;52.35;25.65;;;9.00;99.90;;;;;;4996401;28;20454;-51
2021/11/11 05:06:13;;;;;;;44.63;26.00;;;9.10;99.90;;;;;;4993417;28;20128;-50
2021/11/11 05:08:39;;;;;;;52.80;26.33;;;9.10;99.90;;;;;;4996898;28;20035;-51
2021/11/11 05:11:05;;;;;;;53.78;27.30;;;9.10;99.90;;;;;;4997677;28;20052;-50
2021/11/11 05:13:31;;;;;;;46.60;25.58;;;9.10;99.90;;;;;;5001677;28;20040;-51
2021/11/11 05:15:57;;;;;;;53.40;26.25;;;9.10;99.90;;;;;;4992279;28;20037;-50
2021/11/11 05:18:23;;;;;;;46.22;26.73;;;9.10;99.90;;;;;;5005444;28;20092;-50
2021/11/11 05:20:49;;;;;;;59.35;27.80;;;9.10;99.90;;;;;;5002665;28;20038;-50
2021/11/11 05:23:15;;;;;;;49.80;27.15;;;9.10;99.90;;;;;;5004717;28;20548;-50
2021/11/11 05:25:41;;;;;;;53.13;28.08;;;9.10;99.90;;;;;;5004567;28;20509;-50
2021/11/11 05:28:06;;;;;;;46.67;27.65;;;9.10;99.90;;;;;;5000814;28;20076;-50
2021/11/11 05:30:32;;;;;;;50.47;27.40;;;9.10;99.90;;;;;;4999444;28;20125;-52
2021/11/11 05:32:59;;;;;;;52.45;27.60;;;9.10;99.90;;;;;;5000690;28;20120;-51
2021/11/11 05:35:24;;;;;;;50.55;27.77;;;9.10;99.90;;;;;;4998070;28;20035;-52
2021/11/11 05:37:50;;;;;;;50.63;28.23;;;9.10;99.90;;;;;;4994274;28;20053;-51
2021/11/11 05:40:18;;;;;;;50.42;29.33;;;9.10;99.90;;;;;;5001139;28;20061;-51
2021/11/11 05:42:44;;;;;;;53.05;28.52;;;9.10;99.90;;;;;;4995847;28;20049;-50
2021/11/11 05:45:12;;;;;;;61.05;30.40;;;9.10;99.90;;;;;;5000550;28;20130;-50
2021/11/11 05:47:38;;;;;;;51.13;30.55;;;9.10;99.90;;;;;;4988486;28;20046;-50
2021/11/11 05:50:05;;;;;;;53.20;29.20;;;9.10;99.90;;;;;;4991514;28;20053;-50
2021/11/11 05:52:31;;;;;;;55.72;30.15;;;9.10;99.90;;;;;;4999268;28;20438;-52
2021/11/11 05:54:56;;;;;;;56.67;30.02;;;9.10;99.90;;;;;;4989005;28;20048;-51
2021/11/11 05:57:23;;;;;;;56.67;29.75;;;9.10;99.90;;;;;;4997149;28;20041;-50
2021/11/11 05:59:49;;;;;;;54.88;31.48;;;9.10;99.90;;;;;;4987779;28;20031;-50
2021/11/11 06:02:16;;;;;;;55.10;31.08;;;9.00;99.90;;;;;;4996948;28;20061;-52
2021/11/11 06:04:42;;;;;;;54.92;31.20;;;9.10;99.90;;;;;;4993372;28;20380;-51
2021/11/11 06:07:09;;;;;;;52.65;30.00;;;9.00;99.90;;;;;;4992346;28;20597;-50
2021/11/11 06:09:35;;;;;;;61.65;32.17;;;9.10;99.90;;;;;;4999297;28;20406;-50
2021/11/11 06:12:01;;;;;;;56.35;32.25;;;9.10;99.90;;;;;;4993584;28;20037;-50
2021/11/11 06:14:27;;;;;;;64.32;32.33;;;9.10;99.90;;;;;;5002301;28;20041;-51
2021/11/11 06:16:53;;;;;;;55.78;30.83;;;9.10;99.90;;;;;;4986681;28;20042;-50
2021/11/11 06:19:19;;;;;;;57.35;30.25;;;9.10;99.90;;;;;;4981017;28;20049;-53
2021/11/11 06:21:45;;;;;;;53.38;30.90;;;9.10;99.90;;;;;;4994801;28;20034;-51
2021/11/11 06:24:13;;;;;;;58.20;30.48;;;9.10;99.90;;;;;;4991725;28;20447;-50
2021/11/11 06:26:38;;;;;;;55.88;31.42;;;9.10;99.90;;;;;;5004934;28;20383;-51
2021/11/11 06:29:05;;;;;;;60.72;30.83;;;9.10;99.90;;;;;;5005046;28;20048;-52
2021/11/11 06:31:31;;;;;;;53.20;31.02;;;9.10;99.90;;;;;;4993033;28;20394;-52
2021/11/11 06:33:57;;;;;;;60.30;32.05;;;9.10;99.90;;;;;;4987856;28;20062;-50
2021/11/11 06:36:23;;;;;;;58.38;30.05;;;9.10;99.90;;;;;;4991167;28;20038;-50
2021/11/11 06:38:49;;;;;;;53.67;30.42;;;9.20;99.90;;;;;;5007385;28;20088;-51
2021/11/11 06:41:15;;;;;;;54.13;31.77;;;9.20;99.90;;;;;;5001093;28;20034;-50
2021/11/11 06:43:40;;;;;;;55.35;30.95;;;9.20;99.90;;;;;;5003588;28;20042;-50
2021/11/11 06:46:07;;;;;;;61.72;30.98;;;9.20;99.90;;;;;;4983842;28;20470;-51
2021/11/11 06:48:33;;;;;;;52.60;30.85;;;9.20;99.90;;;;;;4985276;28;20117;-50
2021/11/11 06:50:59;;;;;;;53.03;31.08;;;9.20;99.90;;;;;;5000861;28;20125;-52
2021/11/11 06:53:25;;;;;;;56.17;32.50;;;9.20;99.90;;;;;;4995041;28;20066;-50
2021/11/11 06:55:51;;;;;;;53.42;31.05;;;9.30;99.90;;;;;;4988834;28;20524;-51
2021/11/11 06:58:22;;;;;;;53.70;31.10;;;9.30;99.90;;;;;;4991011;28;20395;-51
2021/11/11 07:00:50;;;;;;;49.58;30.77;;;9.30;99.90;;;;;;4991111;28;20039;-51
2021/11/11 07:03:16;;;;;;;47.88;31.10;;;9.30;99.90;;;;;;4985186;28;20399;-50
2021/11/11 07:05:41;;;;;;;57.58;30.90;;;9.30;99.90;;;;;;4986207;28;20026;-52
2021/11/11 07:08:10;;;;;;;53.45;30.02;;;9.30;99.90;;;;;;4987508;28;20093;-51
2021/11/11 07:10:37;;;;;;;47.17;29.90;;;9.30;99.90;;;;;;4982938;28;20502;-50
2021/11/11 07:13:03;;;;;;;60.47;30.27;;;9.30;99.90;;;;;;5000809;28;20077;-50
2021/11/11 07:15:28;;;;;;;51.33;30.23;;;9.30;99.90;;;;;;4987802;28;20085;-52
2021/11/11 07:17:54;;;;;;;50.90;29.75;;;9.30;99.90;;;;;;4994064;28;20497;-51
2021/11/11 07:20:20;;;;;;;50.28;28.98;;;9.30;99.90;;;;;;4996256;28;20122;-50
2021/11/11 07:22:46;;;;;;;55.88;29.52;;;9.40;99.90;;;;;;5009067;28;20041;-50
2021/11/11 07:25:13;;;;;;;49.50;28.70;;;9.30;99.90;;;;;;5000928;28;20479;-52
2021/11/11 07:27:39;;;;;;;49.90;28.27;;;9.40;99.90;;;;;;4990709;28;20068;-52
2021/11/11 07:30:08;;;;;;;48.80;27.60;;;9.30;99.90;;;;;;4994777;28;20132;-50
2021/11/11 07:32:34;;;;;;;51.38;27.77;;;9.30;99.90;;;;;;4994198;28;20034;-50
2021/11/11 07:35:00;;;;;;;51.30;28.83;;;9.40;99.90;;;;;;4995916;28;20122;-51
2021/11/11 07:37:26;;;;;;;48.65;28.20;;;9.40;99.90;;;;;;4991918;28;20046;-53
2021/11/11 07:39:52;;;;;;;48.15;26.83;;;9.30;99.90;;;;;;5000973;28;20030;-50
2021/11/11 07:42:20;;;;;;;51.95;26.88;;;9.30;99.90;;;;;;5006745;28;20045;-52
2021/11/11 07:44:47;;;;;;;48.25;27.77;;;9.30;99.90;;;;;;5002231;28;20034;-50
2021/11/11 07:47:16;;;;;;;51.97;27.75;;;9.30;99.90;;;;;;5001282;28;20038;-50
2021/11/11 07:49:41;;;;;;;53.47;28.77;;;9.30;99.90;;;;;;4989413;28;20109;-50
2021/11/11 07:52:08;;;;;;;50.30;27.10;;;9.30;99.90;;;;;;4999257;28;20038;-52
2021/11/11 07:54:34;;;;;;;47.95;27.25;;;9.30;99.90;;;;;;4995956;28;20060;-50
2021/11/11 07:56:59;;;;;;;49.10;27.08;;;9.30;99.90;;;;;;5008192;28;20041;-50
2021/11/11 07:59:25;;;;;;;44.05;26.95;;;9.30;99.90;;;;;;5005887;28;20069;-50
2021/11/11 08:01:50;;;;;;;51.53;28.55;;;9.30;99.90;;;;;;5001935;28;20052;-50
2021/11/11 08:04:16;;;;;;;52.40;28.42;;;9.30;99.90;;;;;;5002777;28;20401;-50
2021/11/11 08:06:42;;;;;;;51.17;27.92;;;9.30;99.90;;;;;;4999757;28;20038;-50
2021/11/11 08:09:07;;;;;;;52.67;27.95;;;9.30;99.90;;;;;;5008680;28;20074;-50
2021/11/11 08:11:33;;;;;;;54.63;27.48;;;9.30;99.90;;;;;;5004221;28;20117;-51
2021/11/11 08:14:03;;;;;;;42.05;27.08;;;9.30;99.90;;;;;;4993344;28;20467;-51
2021/11/11 08:16:28;;;;;;;48.67;26.90;;;9.30;99.90;;;;;;4993243;28;20042;-50
2021/11/11 08:18:54;;;;;;;48.72;28.40;;;9.30;99.90;;;;;;4993613;28;20482;-52
2021/11/11 08:21:19;;;;;;;51.28;28.17;;;9.30;99.90;;;;;;4992398;28;20042;-50
2021/11/11 08:23:45;;;;;;;46.53;27.00;;;9.40;99.90;;;;;;4992271;28;20486;-50
2021/11/11 08:26:11;;;;;;;51.55;27.83;;;9.30;99.90;;;;;;4994632;28;20034;-50
2021/11/11 08:28:36;;;;;;;50.10;27.25;;;9.30;99.90;;;;;;4995682;28;20030;-53
2021/11/11 08:31:02;;;;;;;45.28;26.67;;;9.30;99.90;;;;;;4991567;28;20038;-52
2021/11/11 08:33:27;;;;;;;48.78;28.13;;;9.30;99.90;;;;;;4995660;28;20038;-53
2021/11/11 08:35:53;;;;;;;54.35;29.08;;;9.30;99.90;;;;;;4996873;28;20044;-52
2021/11/11 08:38:20;;;;;;;51.65;27.90;;;9.30;99.90;;;;;;4995950;28;20042;-53
2021/11/11 08:40:46;;;;;;;50.72;28.65;;;9.30;99.90;;;;;;4995082;28;20042;-54
2021/11/11 08:43:12;;;;;;;49.75;27.58;;;9.30;99.90;;;;;;4991867;28;20429;-53
2021/11/11 08:45:37;;;;;;;51.85;27.90;;;9.30;99.90;;;;;;4990105;28;20126;-54
2021/11/11 08:48:03;;;;;;;47.22;27.40;;;9.30;99.90;;;;;;4989443;28;20150;-54
2021/11/11 08:50:31;;;;;;;47.60;27.33;;;9.40;99.90;;;;;;4993174;28;20486;-53
2021/11/11 08:53:00;;;;;;;47.88;27.25;;;9.30;99.90;;;;;;4991554;28;20498;-54
2021/11/11 08:55:30;;;;;;;49.95;28.95;;;9.40;99.90;;;;;;4995668;28;20046;-52
2021/11/11 08:57:58;;;;;;;53.97;27.83;;;9.40;99.90;;;;;;4995250;28;20080;-53
2021/11/11 09:00:30;;;;;;;53.03;28.70;;;9.50;99.90;;;;;;4991723;28;20049;-53
2021/11/11 09:02:57;;;;;;;47.42;28.02;;;9.50;99.90;;;;;;4991810;28;20133;-50
2021/11/11 09:05:24;;;;;;;51.63;29.30;;;9.50;99.90;;;;;;4992009;28;20121;-50
2021/11/11 09:07:51;;;;;;;56.58;30.73;;;9.60;99.90;;;;;;4995356;28;20121;-52
2021/11/11 09:10:19;;;;;;;50.65;30.73;;;9.60;99.90;;;;;;4992909;28;20048;-51
2021/11/11 09:12:46;;;;;;;54.40;29.73;;;9.60;99.90;;;;;;4997160;28;20044;-52
2021/11/11 09:15:13;;;;;;;53.28;30.50;;;9.60;99.90;;;;;;4993123;28;20039;-53
2021/11/11 09:17:39;;;;;;;49.45;29.15;;;9.60;99.90;;;;;;4996405;28;20034;-53
2021/11/11 09:20:10;;;;;;;50.40;28.73;;;9.70;99.90;;;;;;4991171;28;20038;-53
2021/11/11 09:22:36;;;;;;;62.85;29.30;;;9.70;99.90;;;;;;4994600;28;20042;-53
2021/11/11 09:25:05;;;;;;;48.70;27.90;;;9.70;99.90;;;;;;4991682;28;20034;-53
2021/11/11 09:27:31;;;;;;;55.63;29.38;;;9.70;99.90;;;;;;4989966;28;20472;-53
2021/11/11 09:29:57;;;;;;;50.47;28.65;;;9.70;99.90;;;;;;4991745;28;20413;-51
2021/11/11 09:32:22;;;;;;;50.40;29.50;;;9.70;99.90;;;;;;4986808;28;20034;-53
2021/11/11 09:34:48;;;;;;;52.13;29.10;;;9.70;99.90;;;;;;4996657;28;20494;-50
2021/11/11 09:37:13;;;;;;;56.13;30.25;;;9.70;99.90;;;;;;4991824;28;20042;-50
2021/11/11 09:39:39;;;;;;;56.42;31.30;;;9.70;99.90;;;;;;4989139;28;20391;-51
2021/11/11 09:42:05;;;;;;;60.15;32.05;;;9.70;99.90;;;;;;4990459;28;20092;-52
2021/11/11 09:44:31;;;;;;;49.22;30.58;;;9.70;99.90;;;;;;4990682;28;20123;-52
2021/11/11 09:46:57;;;;;;;53.05;31.80;;;9.80;99.90;;;;;;4987413;28;20037;-53
2021/11/11 09:49:23;;;;;;;54.83;31.77;;;9.80;99.90;;;;;;4993053;28;20039;-50
2021/11/11 09:51:50;;;;;;;59.78;33.92;;;9.80;99.90;;;;;;4991000;28;20546;-50
2021/11/11 09:58:34;;;;;;;64.80;33.85;;;9.80;99.90;;;;;;4990886;28;20035;-50
2021/11/11 09:59:52;;;;;;;62.20;33.92;;;9.90;99.90;;;;;;4990695;28;20156;-51
2021/11/11 10:02:18;;;;;;;56.55;33.80;;;9.90;99.90;;;;;;4989711;28;20038;-50
2021/11/11 10:04:43;;;;;;;60.88;36.15;;;9.80;99.90;;;;;;4991367;28;20553;-50
2021/11/11 10:07:09;;;;;;;68.55;36.78;;;9.80;99.90;;;;;;4989219;28;20041;-52
2021/11/11 10:09:40;;;;;;;62.67;35.45;;;9.80;99.90;;;;;;4993457;28;20045;-52
2021/11/11 10:12:13;;;;;;;68.13;36.22;;;9.80;99.90;;;;;;4993660;28;20069;-50
2021/11/11 10:14:40;;;;;;;68.95;37.03;;;9.80;99.90;;;;;;4995731;28;20042;-51
2021/11/11 10:17:12;;;;;;;65.55;37.15;;;9.80;99.90;;;;;;4995124;28;20046;-52
2021/11/11 10:19:42;;;;;;;65.45;35.60;;;9.80;99.90;;;;;;4994612;28;20121;-53
2021/11/11 10:22:14;;;;;;;63.42;35.35;;;9.80;99.90;;;;;;4988777;28;20034;-52
2021/11/11 10:24:48;;;;;;;;;;;9.80;99.90;;;;;;4992648;28;20045;-50
2021/11/11 10:30:25;;;;;;;61.97;37.30;;;9.90;99.90;;;;;;4994368;28;20207;-52
2021/11/11 10:32:52;;;;;;;74.80;40.33;;;9.90;99.90;;;;;;4993937;28;20053;-53
2021/11/11 10:35:28;;;;;;;70.78;37.60;;;9.90;99.90;;;;;;4995263;28;20046;-54
2021/11/11 10:38:12;;;;;;;68.68;38.60;;;9.90;99.90;;;;;;4995276;28;20068;-54
2021/11/11 10:40:49;;;;;;;74.35;39.40;;;9.90;99.90;;;;;;4994142;28;20042;-53
2021/11/11 10:44:06;;;;;;;72.97;40.10;;;9.90;99.90;;;;;;5206323;23;20053;-50
2021/11/11 10:50:06;;;;;;;65.65;38.40;;;10.00;99.90;;;;;;5148871;22;20033;-49
2021/11/11 10:53:03;;;;;;;64.10;36.50;;;10.00;99.90;;;;;;5286610;22;20049;-49
2021/11/11 10:55:34;;;;;;;64.32;37.78;;;10.00;99.90;;;;;;5029932;28;20543;-49
2021/11/11 10:58:04;;;;;;;66.47;36.22;;;10.10;99.90;;;;;;5003717;28;20116;-52
2021/11/11 11:00:47;;;;;;;64.35;39.53;;;10.10;99.90;;;;;;5025925;28;20133;-50
2021/11/11 11:03:17;;;;;;;73.22;38.45;;;10.10;99.90;;;;;;5030956;28;20498;-51
2021/11/11 11:06:02;;;;;;;68.63;37.75;;;10.00;99.90;;;;;;5028974;28;20030;-49
2021/11/11 11:08:39;;;;;;;71.05;38.58;;;10.00;99.90;;;;;;5025179;28;20087;-50
2021/11/11 11:11:14;;;;;;;65.88;38.60;;;10.10;99.90;;;;;;5023991;28;20056;-49
2021/11/11 11:13:43;;;;;;;73.38;39.72;;;10.10;99.90;;;;;;5010957;28;20034;-51
2021/11/11 11:16:13;;;;;;;72.55;39.15;;;10.10;99.90;;;;;;5031036;28;20052;-53
2021/11/11 11:19:05;;;;;;;68.00;39.60;;;10.10;99.90;;;;;;5009989;28;20041;-55
2021/11/11 11:21:44;;;;;;;67.88;37.67;;;10.20;99.90;;;;;;5034656;28;20060;-54
2021/11/11 11:24:20;;;;;;;70.70;37.47;;;10.20;99.90;;;;;;5012841;28;20413;-53
2021/11/11 11:26:48;;;;;;;64.63;37.05;;;10.20;99.90;;;;;;5032164;28;20460;-54
2021/11/11 11:29:22;;;;;;;70.57;38.10;;;10.20;99.90;;;;;;5030599;28;20511;-53
2021/11/11 11:32:06;;;;;;;71.63;38.15;;;10.20;99.90;;;;;;5032882;28;20041;-55
2021/11/11 11:34:53;;;;;;;68.60;36.88;;;10.20;99.90;;;;;;5029496;28;20062;-53
2021/11/11 11:37:23;;;;;;;61.67;37.63;;;10.20;99.90;;;;;;5031150;28;20130;-56
2021/11/11 11:39:53;;;;;;;67.32;37.45;;;10.20;99.90;;;;;;5033591;28;20462;-53
2021/11/11 11:42:23;;;;;;;67.80;37.47;;;10.30;99.90;;;;;;4997837;28;20041;-54
2021/11/11 11:44:54;;;;;;;67.85;35.63;;;10.30;99.90;;;;;;5025895;28;20056;-55
2021/11/11 11:48:37;;;;;;;64.20;36.35;;;10.30;99.90;;;;;;5020425;28;20037;-53
2021/11/11 11:51:06;;;;;;;69.50;40.33;;;10.30;99.90;;;;;;5028569;28;20042;-55
2021/11/11 11:53:38;;;;;;;62.78;35.92;;;10.40;99.90;;;;;;5022729;28;20412;-57
2021/11/11 11:56:12;;;;;;;67.45;38.55;;;10.40;99.90;;;;;;5007594;28;20045;-55
2021/11/11 11:58:54;;;;;;;68.18;36.40;;;10.50;99.90;;;;;;5028066;28;20371;-55
2021/11/11 12:01:32;;;;;;;71.00;36.72;;;10.50;99.90;;;;;;5026282;28;20072;-54
2021/11/11 12:09:17;;;;;;;64.22;37.13;;;10.60;99.90;;;;;;5009498;28;20041;-55
2021/11/11 12:17:16;;;;;;;70.07;37.28;;;10.70;99.90;;;;;;5042283;28;20063;-55
2021/11/11 12:39:52;;;;;;;72.05;38.90;;;10.80;99.90;;;;;;5024834;28;20033;-50
2021/11/11 12:42:27;;;;;;;69.87;39.30;;;10.80;99.90;;;;;;4989328;28;20053;-53
2021/11/11 12:45:04;;;;;;;74.80;39.65;;;10.80;99.90;;;;;;5017621;28;20049;-49
2021/11/11 12:47:47;;;;;;;71.45;38.65;;;10.90;99.90;;;;;;5027752;28;20413;-51
2021/11/11 12:50:47;;;;;;;69.80;38.58;;;10.90;99.90;;;;;;5021309;28;20519;-52
2021/11/11 12:53:13;;;;;;;74.20;40.17;;;10.90;99.90;;;;;;5026366;28;20053;-52
2021/11/11 12:55:44;;;;;;;79.30;40.08;;;10.90;99.90;;;;;;5008265;28;20045;-52
2021/11/11 12:58:20;;;;;;;70.75;39.75;;;10.90;99.90;;;;;;5023399;28;20041;-51
2021/11/11 13:00:50;;;;;;;70.85;39.33;;;10.90;99.90;;;;;;5020226;28;20037;-49
2021/11/11 13:03:18;;;;;;;67.25;38.45;;;10.90;99.90;;;;;;5023924;28;20045;-49
2021/11/11 13:05:49;;;;;;;73.30;38.75;;;10.90;99.90;;;;;;5024302;28;20117;-49
2021/11/11 13:08:18;;;;;;;74.65;39.65;;;10.90;99.90;;;;;;5028906;28;20052;-53
2021/11/11 13:11:04;;;;;;;74.10;40.58;;;10.90;99.90;;;;;;5026846;28;20037;-52
2021/11/11 13:13:30;;;;;;;67.47;38.03;;;10.90;99.90;;;;;;5029819;28;20425;-52
2021/11/11 13:16:18;;;;;;;78.28;40.53;;;10.80;99.90;;;;;;4992911;28;20041;-51
2021/11/11 13:19:31;;;;;;;73.80;40.83;;;10.80;99.90;;;;;;5035473;28;20042;-52
2021/11/11 14:00:43;;;;;;;77.57;39.67;;;11.00;99.90;;;;;;5742278;22;20466;-48
2021/11/11 14:03:35;;;;;;;78.45;41.13;;;11.00;99.90;;;;;;4982228;28;20071;-48
2021/11/11 16:02:27;;;;;;;73.05;45.63;;;10.80;99.90;;;;;;4996476;28;20081;-49
2021/11/11 16:21:32;;;;;;;57.40;32.72;;;10.70;99.90;;;;;;4988216;28;20501;-50
2021/11/11 16:26:24;;;;;;;58.35;33.28;;;10.70;99.90;;;;;;4992199;28;20121;-49
2021/11/11 16:28:53;;;;;;;62.63;33.22;;;10.70;99.90;;;;;;4990262;28;20125;-52
2021/11/11 16:31:21;;;;;;;58.30;34.70;;;10.70;99.90;;;;;;4976626;28;20077;-49
2021/11/11 16:33:48;;;;;;;55.05;31.98;;;10.70;99.90;;;;;;4978366;28;20057;-52
2021/11/11 16:39:45;;;;;;;54.83;31.00;;;10.70;99.90;;;;;;4986545;28;20058;-52
2021/11/11 16:42:10;;;;;;;57.58;32.17;;;10.70;99.90;;;;;;4993933;28;20053;-49